Time;durP1;ratioP1;P1;durP2;ratioP2;P2;SDS_P1;SDS_P2;PMS_P1;PMS_P2;Temp;Humidity;BMP_temperature;BMP_pressure;BME280_temperature;BME280_humidity;BME280_pressure;Samples;Min_cycle;Max_cycle;Signal;HPM_P1;HPM_P2
2021/03/12 00:00:31;;;;;;;3.80;1.27;;;;;;;;;;1034869;28;20010;-48
2021/03/12 00:01:01;;;;;;;3.00;1.40;;;;;;;;;;1034603;28;20022;-49
2021/03/12 00:01:32;;;;;;;2.27;1.20;;;;;;;;;;1033549;28;20383;-49
2021/03/12 00:02:02;;;;;;;2.30;1.30;;;;;;;;;;1033831;28;20020;-50
2021/03/12 00:02:35;;;;;;;2.00;1.20;;;;;;;;;;1033700;28;20443;-50
2021/03/12 00:03:06;;;;;;;2.58;1.20;;;;;;;;;;1033630;28;20014;-49
2021/03/12 00:03:37;;;;;;;2.23;1.10;;;;;;;;;;1034274;28;20021;-52
2021/03/12 00:04:07;;;;;;;2.23;1.10;;;;;;;;;;1034559;28;20022;-52
2021/03/12 00:04:37;;;;;;;2.10;1.13;;;;;;;;;;1029855;28;20015;-50
2021/03/12 00:05:08;;;;;;;2.30;1.20;;;;;;;;;;1031914;28;20017;-51
2021/03/12 00:05:45;;;;;;;3.13;1.20;;;;;;;;;;1032208;28;20006;-50
2021/03/12 00:06:15;;;;;;;2.17;1.20;;;;;;;;;;1032819;28;20033;-52
2021/03/12 00:06:46;;;;;;;2.27;1.10;;;;;;;;;;1035151;28;20018;-51
2021/03/12 00:07:16;;;;;;;1.80;1.10;;;;;;;;;;1034276;28;20060;-51
2021/03/12 00:07:47;;;;;;;2.87;1.20;;;;;;;;;;1033810;28;20037;-50
2021/03/12 00:08:17;;;;;;;2.27;1.20;;;;;;;;;;1034096;28;20068;-51
2021/03/12 00:08:48;;;;;;;2.60;1.20;;;;;;;;;;1034778;28;20013;-52
2021/03/12 00:09:18;;;;;;;2.47;1.20;;;;;;;;;;1033987;28;20529;-50
2021/03/12 00:09:48;;;;;;;2.50;1.20;;;;;;;;;;1033098;28;20066;-52
2021/03/12 00:10:21;;;;;;;2.87;1.10;;;;;;;;;;1034280;28;20061;-50
2021/03/12 00:10:51;;;;;;;2.35;1.10;;;;;;;;;;1035005;28;20021;-50
2021/03/12 00:11:21;;;;;;;1.70;1.10;;;;;;;;;;1034792;28;20164;-51
2021/03/12 00:11:52;;;;;;;3.57;1.17;;;;;;;;;;1033867;28;20006;-50
2021/03/12 00:12:23;;;;;;;2.25;1.05;;;;;;;;;;1033768;28;20030;-52
2021/03/12 00:12:53;;;;;;;1.83;1.00;;;;;;;;;;1034951;28;20029;-50
2021/03/12 00:13:24;;;;;;;1.93;1.00;;;;;;;;;;1034605;28;20006;-50
2021/03/12 00:13:55;;;;;;;1.98;1.10;;;;;;;;;;1033751;28;20049;-50
2021/03/12 00:14:25;;;;;;;2.60;1.10;;;;;;;;;;1033350;28;20036;-50
2021/03/12 00:14:55;;;;;;;2.23;1.10;;;;;;;;;;1034328;28;20010;-51
2021/03/12 00:15:26;;;;;;;2.57;1.10;;;;;;;;;;1032210;28;20113;-50
2021/03/12 00:15:56;;;;;;;1.83;1.00;;;;;;;;;;1034501;28;20055;-51
2021/03/12 00:16:26;;;;;;;1.93;1.20;;;;;;;;;;1035072;28;20075;-51
2021/03/12 00:16:57;;;;;;;2.33;1.10;;;;;;;;;;1034127;28;20527;-52
2021/03/12 00:17:27;;;;;;;4.23;1.33;;;;;;;;;;1033648;28;20498;-49
2021/03/12 00:17:57;;;;;;;2.60;1.20;;;;;;;;;;1034355;28;20096;-50
2021/03/12 00:18:38;;;;;;;1.70;1.00;;;;;;;;;;1034922;28;20029;-50
2021/03/12 00:19:08;;;;;;;2.40;1.00;;;;;;;;;;1034438;28;20021;-51
2021/03/12 00:19:38;;;;;;;4.97;1.23;;;;;;;;;;1030028;28;20242;-51
2021/03/12 00:20:09;;;;;;;2.17;1.10;;;;;;;;;;1031088;28;20020;-50
2021/03/12 00:20:40;;;;;;;2.03;1.10;;;;;;;;;;1030250;28;20015;-50
2021/03/12 00:21:11;;;;;;;2.80;1.20;;;;;;;;;;1031836;28;20571;-50
2021/03/12 00:21:41;;;;;;;2.47;1.05;;;;;;;;;;1031817;28;20097;-50
2021/03/12 00:22:11;;;;;;;2.60;1.10;;;;;;;;;;1034872;28;20030;-51
2021/03/12 00:22:42;;;;;;;2.47;1.20;;;;;;;;;;1034684;28;20014;-50
2021/03/12 00:23:12;;;;;;;2.40;1.00;;;;;;;;;;1033424;28;20029;-53
2021/03/12 00:23:43;;;;;;;1.70;1.00;;;;;;;;;;1033059;28;20027;-50
2021/03/12 00:24:13;;;;;;;2.63;1.20;;;;;;;;;;1031781;28;20025;-51
2021/03/12 00:24:43;;;;;;;2.53;1.30;;;;;;;;;;1031791;28;20010;-48
2021/03/12 00:25:15;;;;;;;4.80;1.33;;;;;;;;;;1033364;28;20109;-51
2021/03/12 00:25:45;;;;;;;2.05;1.08;;;;;;;;;;1035525;28;20058;-50
2021/03/12 00:26:16;;;;;;;2.80;1.20;;;;;;;;;;1029341;28;20027;-49
2021/03/12 00:26:46;;;;;;;2.30;1.20;;;;;;;;;;1031844;28;20014;-54
2021/03/12 00:27:16;;;;;;;3.80;1.30;;;;;;;;;;1031857;28;20862;-49
2021/03/12 00:27:46;;;;;;;2.20;1.10;;;;;;;;;;1034571;28;20029;-51
2021/03/12 00:28:17;;;;;;;2.53;1.10;;;;;;;;;;1033931;28;20037;-50
2021/03/12 00:28:47;;;;;;;3.37;1.57;;;;;;;;;;1033096;28;20077;-53
2021/03/12 00:29:17;;;;;;;2.83;1.20;;;;;;;;;;1034027;28;20042;-49
2021/03/12 00:29:48;;;;;;;3.97;1.27;;;;;;;;;;1034657;28;20018;-51
2021/03/12 00:30:18;;;;;;;4.10;1.50;;;;;;;;;;1033672;28;20019;-52
2021/03/12 00:30:49;;;;;;;1.90;1.00;;;;;;;;;;1029256;28;20098;-49
2021/03/12 00:31:19;;;;;;;3.33;1.00;;;;;;;;;;1034068;28;20462;-49
2021/03/12 00:31:49;;;;;;;1.80;1.10;;;;;;;;;;1034670;28;20030;-52
2021/03/12 00:32:20;;;;;;;2.10;1.17;;;;;;;;;;1034101;28;20006;-49
2021/03/12 00:32:50;;;;;;;2.10;1.10;;;;;;;;;;1033029;28;20006;-49
2021/03/12 00:33:22;;;;;;;2.90;1.10;;;;;;;;;;1033549;28;20006;-49
2021/03/12 00:33:52;;;;;;;1.90;1.10;;;;;;;;;;1034391;28;20013;-50
2021/03/12 00:34:22;;;;;;;1.90;1.10;;;;;;;;;;1034361;28;20006;-51
2021/03/12 00:34:52;;;;;;;2.37;1.23;;;;;;;;;;1033197;28;20090;-50
2021/03/12 00:35:23;;;;;;;2.30;1.00;;;;;;;;;;1033198;28;20019;-52
2021/03/12 00:35:53;;;;;;;3.23;1.27;;;;;;;;;;1033201;28;20389;-50
2021/03/12 00:36:23;;;;;;;2.40;1.00;;;;;;;;;;1033262;28;20007;-50
2021/03/12 00:36:54;;;;;;;5.23;1.13;;;;;;;;;;1034772;28;20325;-50
2021/03/12 00:37:24;;;;;;;2.17;1.13;;;;;;;;;;1034901;28;20037;-49
2021/03/12 00:37:54;;;;;;;3.23;1.20;;;;;;;;;;1033626;28;20089;-52
2021/03/12 00:38:25;;;;;;;2.70;1.13;;;;;;;;;;1033426;28;20003;-51
2021/03/12 00:38:55;;;;;;;2.00;1.10;;;;;;;;;;1034751;28;20455;-51
2021/03/12 00:39:25;;;;;;;2.10;1.40;;;;;;;;;;1034441;28;20116;-51
2021/03/12 00:39:55;;;;;;;3.73;1.20;;;;;;;;;;1033551;28;20382;-48
2021/03/12 00:40:26;;;;;;;3.00;1.10;;;;;;;;;;1033041;28;20074;-48
2021/03/12 00:40:58;;;;;;;3.35;1.10;;;;;;;;;;1033960;28;20093;-49
2021/03/12 00:41:28;;;;;;;2.55;1.33;;;;;;;;;;1034811;28;20018;-49
2021/03/12 00:41:58;;;;;;;2.63;1.10;;;;;;;;;;1034390;28;20349;-50
2021/03/12 00:42:28;;;;;;;3.50;1.30;;;;;;;;;;1033566;28;20101;-51
2021/03/12 00:42:59;;;;;;;2.17;1.10;;;;;;;;;;1034064;28;20180;-51
2021/03/12 00:43:29;;;;;;;2.37;1.20;;;;;;;;;;1034553;28;20010;-51
2021/03/12 00:43:59;;;;;;;5.60;1.60;;;;;;;;;;1034006;28;20056;-53
2021/03/12 00:44:30;;;;;;;1.73;1.03;;;;;;;;;;1033090;28;20016;-50
2021/03/12 00:45:00;;;;;;;5.07;1.30;;;;;;;;;;1033630;28;20052;-49
2021/03/12 00:45:31;;;;;;;2.67;1.20;;;;;;;;;;1034513;28;20433;-52
2021/03/12 00:46:03;;;;;;;3.13;1.13;;;;;;;;;;1032214;28;20014;-50
2021/03/12 00:46:33;;;;;;;2.58;1.15;;;;;;;;;;1027820;28;20393;-50
2021/03/12 00:47:03;;;;;;;2.33;1.27;;;;;;;;;;1025094;28;20025;-53
2021/03/12 00:47:34;;;;;;;2.30;1.20;;;;;;;;;;1026576;28;20021;-50
2021/03/12 00:48:04;;;;;;;2.07;1.10;;;;;;;;;;1026738;28;20019;-49
2021/03/12 00:48:34;;;;;;;3.23;1.10;;;;;;;;;;1033162;28;20010;-50
2021/03/12 00:49:05;;;;;;;2.40;1.03;;;;;;;;;;1035555;28;20010;-50
2021/03/12 00:49:35;;;;;;;2.53;1.30;;;;;;;;;;1029288;28;20081;-49
2021/03/12 00:50:06;;;;;;;3.00;1.30;;;;;;;;;;1031986;28;20010;-49
2021/03/12 00:50:36;;;;;;;2.00;1.00;;;;;;;;;;1027874;28;20018;-49
2021/03/12 00:51:07;;;;;;;2.97;1.10;;;;;;;;;;1030841;28;20038;-51
2021/03/12 00:51:37;;;;;;;4.30;1.10;;;;;;;;;;1033629;28;20298;-48
2021/03/12 00:52:07;;;;;;;2.47;1.20;;;;;;;;;;1033160;28;20007;-49
2021/03/12 00:52:38;;;;;;;2.60;1.10;;;;;;;;;;1034305;28;20017;-49
2021/03/12 00:53:08;;;;;;;2.73;1.20;;;;;;;;;;1034822;28;20546;-49
2021/03/12 00:53:38;;;;;;;2.33;1.23;;;;;;;;;;1034081;28;20015;-49
2021/03/12 00:54:09;;;;;;;2.40;1.20;;;;;;;;;;1033440;28;20030;-50
2021/03/12 00:54:39;;;;;;;1.73;1.10;;;;;;;;;;1033657;28;20006;-49
2021/03/12 00:55:10;;;;;;;2.67;1.20;;;;;;;;;;1034523;28;20045;-52
2021/03/12 00:55:40;;;;;;;3.83;1.40;;;;;;;;;;1034011;28;20384;-50
2021/03/12 00:56:10;;;;;;;2.00;1.10;;;;;;;;;;1033136;28;20022;-49
2021/03/12 00:56:40;;;;;;;3.93;1.33;;;;;;;;;;1033626;28;20557;-50
2021/03/12 00:57:11;;;;;;;1.90;1.10;;;;;;;;;;1034348;28;20096;-49
2021/03/12 00:57:41;;;;;;;2.07;1.00;;;;;;;;;;1034117;28;20019;-48
2021/03/12 00:58:11;;;;;;;2.10;1.13;;;;;;;;;;1033077;28;20018;-51
2021/03/12 00:58:42;;;;;;;2.60;1.10;;;;;;;;;;1033312;28;20163;-52
2021/03/12 00:59:12;;;;;;;2.93;1.10;;;;;;;;;;1035147;28;20005;-50
2021/03/12 00:59:42;;;;;;;2.00;1.20;;;;;;;;;;1035318;28;20367;-49
2021/03/12 01:00:13;;;;;;;4.07;1.20;;;;;;;;;;1034065;28;20014;-50
2021/03/12 01:00:43;;;;;;;3.23;1.13;;;;;;;;;;1033823;28;20110;-51
2021/03/12 01:01:14;;;;;;;3.47;1.20;;;;;;;;;;1035429;28;20525;-50
2021/03/12 01:01:44;;;;;;;1.83;1.10;;;;;;;;;;1035305;28;20491;-48
2021/03/12 01:02:14;;;;;;;2.23;1.10;;;;;;;;;;1034059;28;20010;-50
2021/03/12 01:02:44;;;;;;;2.10;1.13;;;;;;;;;;1033772;28;20006;-49
2021/03/12 01:03:15;;;;;;;2.23;1.30;;;;;;;;;;1032604;28;20120;-49
2021/03/12 01:03:45;;;;;;;1.77;1.10;;;;;;;;;;1029631;28;20514;-49
2021/03/12 01:04:15;;;;;;;2.90;1.20;;;;;;;;;;1036584;28;20025;-49
2021/03/12 01:04:46;;;;;;;3.60;1.30;;;;;;;;;;1033901;28;20018;-52
2021/03/12 01:05:16;;;;;;;4.60;1.37;;;;;;;;;;1035231;28;20101;-53
2021/03/12 01:05:46;;;;;;;3.17;1.00;;;;;;;;;;1035227;28;20014;-52
2021/03/12 01:06:17;;;;;;;2.20;1.20;;;;;;;;;;1034713;28;20018;-51
2021/03/12 01:06:47;;;;;;;3.87;1.20;;;;;;;;;;1034249;28;20026;-50
2021/03/12 01:07:17;;;;;;;2.97;1.27;;;;;;;;;;1035249;28;20460;-49
2021/03/12 01:07:48;;;;;;;3.17;1.30;;;;;;;;;;1035628;28;20014;-50
2021/03/12 01:08:18;;;;;;;2.87;1.17;;;;;;;;;;1034806;28;20097;-51
2021/03/12 01:08:48;;;;;;;2.90;1.30;;;;;;;;;;1034097;28;20014;-50
2021/03/12 01:09:19;;;;;;;2.03;1.00;;;;;;;;;;1034806;28;20010;-49
2021/03/12 01:09:49;;;;;;;2.00;1.00;;;;;;;;;;1034936;28;20059;-49
2021/03/12 01:10:19;;;;;;;2.47;1.07;;;;;;;;;;1030712;28;20015;-50
2021/03/12 01:10:50;;;;;;;3.87;1.00;;;;;;;;;;1031668;28;20201;-51
2021/03/12 01:11:20;;;;;;;2.30;0.90;;;;;;;;;;1030829;28;20321;-50
2021/03/12 01:11:50;;;;;;;1.67;0.90;;;;;;;;;;1035546;28;20099;-51
2021/03/12 01:12:21;;;;;;;2.10;1.10;;;;;;;;;;1035217;28;20010;-49
2021/03/12 01:12:51;;;;;;;2.37;1.00;;;;;;;;;;1034249;28;20014;-49
2021/03/12 01:13:21;;;;;;;2.80;1.10;;;;;;;;;;1034243;28;20443;-49
2021/03/12 01:13:52;;;;;;;3.37;1.10;;;;;;;;;;1035090;28;20030;-52
2021/03/12 01:14:23;;;;;;;4.17;1.00;;;;;;;;;;1035152;28;20105;-50
2021/03/12 01:14:54;;;;;;;2.22;1.10;;;;;;;;;;1032640;28;20110;-51
2021/03/12 01:15:24;;;;;;;3.27;1.00;;;;;;;;;;1035554;28;20490;-49
2021/03/12 01:15:55;;;;;;;2.10;1.10;;;;;;;;;;1034100;28;20006;-49
2021/03/12 01:16:25;;;;;;;1.90;1.10;;;;;;;;;;1033817;28;20428;-50
2021/03/12 01:16:55;;;;;;;1.60;1.00;;;;;;;;;;1035169;28;20022;-49
2021/03/12 01:17:25;;;;;;;2.57;1.10;;;;;;;;;;1035321;28;20002;-50
2021/03/12 01:17:56;;;;;;;1.97;1.00;;;;;;;;;;1034488;28;20093;-49
2021/03/12 01:18:26;;;;;;;2.93;0.93;;;;;;;;;;1034075;28;20010;-49
2021/03/12 01:18:56;;;;;;;3.17;1.20;;;;;;;;;;1035285;28;20006;-49
2021/03/12 01:19:27;;;;;;;3.50;1.00;;;;;;;;;;1035693;28;20092;-50
2021/03/12 01:19:57;;;;;;;2.40;1.10;;;;;;;;;;1034778;28;20018;-50
2021/03/12 01:20:32;;;;;;;2.57;1.10;;;;;;;;;;1034071;28;20014;-52
2021/03/12 01:21:02;;;;;;;2.17;1.20;;;;;;;;;;1034504;28;20045;-50
2021/03/12 01:21:33;;;;;;;1.50;0.90;;;;;;;;;;1035681;28;20467;-48
2021/03/12 01:22:03;;;;;;;2.87;1.17;;;;;;;;;;1035385;28;20014;-50
2021/03/12 01:22:33;;;;;;;2.10;0.97;;;;;;;;;;1034097;28;20018;-51
2021/03/12 01:23:03;;;;;;;5.23;1.40;;;;;;;;;;1034104;28;20018;-49
2021/03/12 01:23:34;;;;;;;4.00;1.10;;;;;;;;;;1032441;28;20487;-50
2021/03/12 01:24:04;;;;;;;2.57;1.00;;;;;;;;;;1032443;28;20011;-50
2021/03/12 01:24:35;;;;;;;2.40;0.90;;;;;;;;;;1035080;28;20112;-52
2021/03/12 01:25:06;;;;;;;2.00;0.90;;;;;;;;;;1035336;28;20026;-55
2021/03/12 01:25:45;;;;;;;1.65;1.00;;;;;;;;;;1034241;28;20015;-51
2021/03/12 01:26:16;;;;;;;4.25;1.20;;;;;;;;;;1034063;28;20498;-48
2021/03/12 01:26:46;;;;;;;3.17;1.30;;;;;;;;;;1036285;28;20093;-52
2021/03/12 01:27:16;;;;;;;2.33;1.10;;;;;;;;;;1034334;28;20070;-50
2021/03/12 01:27:47;;;;;;;3.00;1.17;;;;;;;;;;1034010;28;20022;-50
2021/03/12 01:28:17;;;;;;;1.87;1.00;;;;;;;;;;1032583;28;20084;-49
2021/03/12 01:28:47;;;;;;;2.73;1.20;;;;;;;;;;1029797;28;20019;-49
2021/03/12 01:29:18;;;;;;;2.13;1.10;;;;;;;;;;1032469;28;20026;-49
2021/03/12 01:29:48;;;;;;;2.13;1.10;;;;;;;;;;1033147;28;20018;-50
2021/03/12 01:30:19;;;;;;;3.03;1.00;;;;;;;;;;1034933;28;20017;-50
2021/03/12 01:30:50;;;;;;;2.20;1.20;;;;;;;;;;1035657;28;20017;-51
2021/03/12 01:31:20;;;;;;;2.67;1.17;;;;;;;;;;1035235;28;20045;-51
2021/03/12 01:31:50;;;;;;;2.83;1.20;;;;;;;;;;1033996;28;20016;-50
2021/03/12 01:32:21;;;;;;;3.10;1.10;;;;;;;;;;1034662;28;20017;-49
2021/03/12 01:32:51;;;;;;;2.70;1.27;;;;;;;;;;1035442;28;20041;-50
2021/03/12 01:33:21;;;;;;;2.60;1.10;;;;;;;;;;1035105;28;20019;-56
2021/03/12 01:33:52;;;;;;;3.37;1.10;;;;;;;;;;1033847;28;20413;-51
2021/03/12 01:34:22;;;;;;;2.67;1.23;;;;;;;;;;1034656;28;20026;-48
2021/03/12 01:34:52;;;;;;;4.60;1.20;;;;;;;;;;1033458;28;20021;-51
2021/03/12 01:35:22;;;;;;;3.77;1.00;;;;;;;;;;1034018;28;20017;-50
2021/03/12 01:35:53;;;;;;;3.17;1.10;;;;;;;;;;1035011;28;20463;-52
2021/03/12 01:36:23;;;;;;;5.00;1.20;;;;;;;;;;1035248;28;20058;-50
2021/03/12 01:36:54;;;;;;;4.40;1.30;;;;;;;;;;1034048;28;20007;-49
2021/03/12 01:37:24;;;;;;;3.87;1.33;;;;;;;;;;1034093;28;20107;-50
2021/03/12 01:37:54;;;;;;;4.17;1.20;;;;;;;;;;1035415;28;20093;-52
2021/03/12 01:38:25;;;;;;;4.80;1.30;;;;;;;;;;1035123;28;20527;-50
2021/03/12 01:38:55;;;;;;;2.60;1.00;;;;;;;;;;1033950;28;20081;-51
2021/03/12 01:39:25;;;;;;;2.10;1.10;;;;;;;;;;1033774;28;20011;-49
2021/03/12 01:39:55;;;;;;;4.40;1.10;;;;;;;;;;1034996;28;20010;-50
2021/03/12 01:40:26;;;;;;;3.53;1.33;;;;;;;;;;1035154;28;20457;-50
2021/03/12 01:40:56;;;;;;;3.43;1.10;;;;;;;;;;1033867;28;20049;-49
2021/03/12 01:41:27;;;;;;;2.10;1.10;;;;;;;;;;1033750;28;20411;-51
2021/03/12 01:41:57;;;;;;;2.73;1.10;;;;;;;;;;1032470;28;20015;-50
2021/03/12 01:42:27;;;;;;;3.13;1.20;;;;;;;;;;1036529;28;20010;-51
2021/03/12 01:42:58;;;;;;;2.43;1.10;;;;;;;;;;1032273;28;20034;-51
2021/03/12 01:43:28;;;;;;;2.83;1.23;;;;;;;;;;1029346;28;20035;-50
2021/03/12 01:43:59;;;;;;;2.47;1.10;;;;;;;;;;1034933;28;20064;-49
2021/03/12 01:44:29;;;;;;;3.83;1.33;;;;;;;;;;1035146;28;20018;-53
2021/03/12 01:44:59;;;;;;;2.87;1.20;;;;;;;;;;1033980;28;20030;-51
2021/03/12 01:45:31;;;;;;;3.67;1.27;;;;;;;;;;1033549;28;20029;-50
2021/03/12 01:46:02;;;;;;;2.50;1.02;;;;;;;;;;1034886;28;20097;-51
2021/03/12 01:46:32;;;;;;;3.83;1.13;;;;;;;;;;1035491;28;20026;-49
2021/03/12 01:47:02;;;;;;;2.37;1.20;;;;;;;;;;1034603;28;20080;-51
2021/03/12 01:47:33;;;;;;;2.60;1.10;;;;;;;;;;1034155;28;20021;-48
2021/03/12 01:48:06;;;;;;;2.25;1.20;;;;;;;;;;1034681;28;20064;-49
2021/03/12 01:48:36;;;;;;;3.35;1.10;;;;;;;;;;1035137;28;20105;-51
2021/03/12 01:49:06;;;;;;;3.33;1.23;;;;;;;;;;1034837;28;20048;-51
2021/03/12 01:49:37;;;;;;;3.73;1.10;;;;;;;;;;1033678;28;20063;-49
2021/03/12 01:50:07;;;;;;;1.97;1.10;;;;;;;;;;1034097;28;20050;-49
2021/03/12 01:50:38;;;;;;;2.90;1.10;;;;;;;;;;1035447;28;20010;-49
2021/03/12 01:51:08;;;;;;;2.57;1.20;;;;;;;;;;1035190;28;20108;-49
2021/03/12 01:51:39;;;;;;;2.70;1.20;;;;;;;;;;1034244;28;20026;-50
2021/03/12 01:52:09;;;;;;;4.07;1.20;;;;;;;;;;1034022;28;20014;-53
2021/03/12 01:52:39;;;;;;;2.90;1.17;;;;;;;;;;1035258;28;20130;-53
2021/03/12 01:53:10;;;;;;;3.10;1.10;;;;;;;;;;1035407;28;20068;-50
2021/03/12 01:53:40;;;;;;;3.40;1.10;;;;;;;;;;1034314;28;20011;-50
2021/03/12 01:54:11;;;;;;;2.10;1.00;;;;;;;;;;1033729;28;20014;-50
2021/03/12 01:54:41;;;;;;;2.60;1.17;;;;;;;;;;1034714;28;20017;-51
2021/03/12 01:55:31;;;;;;;1.70;0.93;;;;;;;;;;1035021;28;20020;-49
2021/03/12 01:56:01;;;;;;;4.25;1.08;;;;;;;;;;1034417;28;20404;-49
2021/03/12 01:56:32;;;;;;;2.40;1.10;;;;;;;;;;1034084;28;20022;-51
2021/03/12 01:57:03;;;;;;;2.50;1.10;;;;;;;;;;1034692;28;20006;-51
2021/03/12 01:57:33;;;;;;;3.37;1.20;;;;;;;;;;1035174;28;20017;-50
2021/03/12 01:58:04;;;;;;;2.43;1.10;;;;;;;;;;1034740;28;20009;-47
2021/03/12 01:58:34;;;;;;;2.23;1.07;;;;;;;;;;1033855;28;20014;-48
2021/03/12 01:59:04;;;;;;;2.53;1.10;;;;;;;;;;1034514;28;20435;-51
2021/03/12 01:59:35;;;;;;;1.70;1.00;;;;;;;;;;1034967;28;20013;-49
2021/03/12 02:00:05;;;;;;;2.50;1.10;;;;;;;;;;1031010;28;20348;-48
2021/03/12 02:00:36;;;;;;;2.10;1.10;;;;;;;;;;1029931;28;20527;-52
2021/03/12 02:01:06;;;;;;;1.80;1.00;;;;;;;;;;1030453;28;20364;-50
2021/03/12 02:01:36;;;;;;;1.50;0.90;;;;;;;;;;1035015;28;20522;-49
2021/03/12 02:02:07;;;;;;;2.00;1.03;;;;;;;;;;1035214;28;20068;-51
2021/03/12 02:02:38;;;;;;;1.53;0.90;;;;;;;;;;1033803;28;20017;-50
2021/03/12 02:03:09;;;;;;;2.63;1.00;;;;;;;;;;1033801;28;20026;-50
2021/03/12 02:03:39;;;;;;;3.53;1.40;;;;;;;;;;1034674;28;20058;-48
2021/03/12 02:04:10;;;;;;;2.17;1.00;;;;;;;;;;1035210;28;20125;-50
2021/03/12 02:04:40;;;;;;;2.23;1.00;;;;;;;;;;1034216;28;20348;-50
2021/03/12 02:05:11;;;;;;;2.30;1.10;;;;;;;;;;1034193;28;20051;-51
2021/03/12 02:05:41;;;;;;;3.90;1.30;;;;;;;;;;1034968;28;20013;-50
2021/03/12 02:06:11;;;;;;;2.20;1.20;;;;;;;;;;1035337;28;20021;-50
2021/03/12 02:06:42;;;;;;;2.70;1.10;;;;;;;;;;1034673;28;20448;-49
2021/03/12 02:07:12;;;;;;;2.43;1.00;;;;;;;;;;1033902;28;20014;-49
2021/03/12 02:07:42;;;;;;;2.80;1.00;;;;;;;;;;1034788;28;20056;-50
2021/03/12 02:08:13;;;;;;;2.77;1.03;;;;;;;;;;1035551;28;20025;-52
2021/03/12 02:08:44;;;;;;;3.33;1.10;;;;;;;;;;1034587;28;20073;-57
2021/03/12 02:09:15;;;;;;;3.03;1.30;;;;;;;;;;1033876;28;20068;-49
2021/03/12 02:09:45;;;;;;;3.78;1.10;;;;;;;;;;1034042;28;20006;-49
2021/03/12 02:10:17;;;;;;;2.03;1.00;;;;;;;;;;1035252;28;20163;-50
2021/03/12 02:10:47;;;;;;;3.00;1.20;;;;;;;;;;1035267;28;20019;-49
2021/03/12 02:11:18;;;;;;;2.30;1.20;;;;;;;;;;1033922;28;20041;-51
2021/03/12 02:11:56;;;;;;;2.60;1.17;;;;;;;;;;1034131;28;20013;-49
2021/03/12 02:12:31;;;;;;;2.88;1.30;;;;;;;;;;1034952;28;20018;-49
2021/03/12 02:13:10;;;;;;;3.08;1.20;;;;;;;;;;1034242;28;20105;-49
2021/03/12 02:13:46;;;;;;;2.17;1.10;;;;;;;;;;1029810;28;20041;-48
2021/03/12 02:14:22;;;;;;;1.90;1.10;;;;;;;;;;1026753;28;20452;-50
2021/03/12 02:15:10;;;;;;;2.35;1.10;;;;;;;;;;1025617;28;20071;-49
2021/03/12 02:15:47;;;;;;;1.58;0.95;;;;;;;;;;1030083;28;20500;-49
2021/03/12 02:16:19;;;;;;;3.45;1.10;;;;;;;;;;1033800;28;20018;-51
2021/03/12 02:16:53;;;;;;;2.53;1.10;;;;;;;;;;1034015;28;20015;-49
2021/03/12 02:17:26;;;;;;;2.40;1.10;;;;;;;;;;1034422;28;20101;-51
2021/03/12 02:18:15;;;;;;;2.88;1.20;;;;;;;;;;1035024;28;20017;-56
2021/03/12 02:18:45;;;;;;;4.05;1.20;;;;;;;;;;1034775;28;20010;-51
2021/03/12 02:19:34;;;;;;;3.40;1.20;;;;;;;;;;1035760;28;20132;-49
2021/03/12 02:20:05;;;;;;;4.25;1.20;;;;;;;;;;1034627;28;20073;-50
2021/03/12 02:20:39;;;;;;;1.90;1.20;;;;;;;;;;1035727;28;20084;-50
2021/03/12 02:21:22;;;;;;;2.13;0.90;;;;;;;;;;1031193;28;20046;-50
2021/03/12 02:21:53;;;;;;;5.47;1.10;;;;;;;;;;1031239;28;20023;-53
2021/03/12 02:22:23;;;;;;;3.63;1.45;;;;;;;;;;1032441;28;20007;-50
2021/03/12 02:22:57;;;;;;;2.27;1.00;;;;;;;;;;1031660;28;20014;-51
2021/03/12 02:23:45;;;;;;;3.33;1.10;;;;;;;;;;1025619;28;20022;-48
2021/03/12 02:24:27;;;;;;;2.65;1.10;;;;;;;;;;1030793;28;20376;-49
2021/03/12 02:24:58;;;;;;;2.47;1.10;;;;;;;;;;1029701;28;20011;-48
2021/03/12 02:25:28;;;;;;;3.35;1.10;;;;;;;;;;1029709;28;20506;-52
2021/03/12 02:26:01;;;;;;;2.93;1.10;;;;;;;;;;1029807;28;20105;-50
2021/03/12 02:26:43;;;;;;;3.10;1.10;;;;;;;;;;1029487;28;20030;-52
2021/03/12 02:27:13;;;;;;;3.33;1.40;;;;;;;;;;1032274;28;20556;-51
2021/03/12 02:27:44;;;;;;;2.80;1.03;;;;;;;;;;1028610;28;20011;-51
2021/03/12 02:28:14;;;;;;;3.13;1.20;;;;;;;;;;1030586;28;20015;-50
2021/03/12 02:28:45;;;;;;;2.40;1.00;;;;;;;;;;1036327;28;20444;-50
2021/03/12 02:29:18;;;;;;;2.60;1.10;;;;;;;;;;1031518;28;20034;-51
2021/03/12 02:29:52;;;;;;;2.78;1.20;;;;;;;;;;1032463;28;20010;-49
2021/03/12 02:30:22;;;;;;;4.18;1.38;;;;;;;;;;1034239;28;20012;-51
2021/03/12 02:30:53;;;;;;;3.83;1.33;;;;;;;;;;1033633;28;20432;-50
2021/03/12 02:31:23;;;;;;;3.97;1.33;;;;;;;;;;1034256;28;20078;-51
2021/03/12 02:31:54;;;;;;;1.80;1.00;;;;;;;;;;1035173;28;20432;-52
2021/03/12 02:32:33;;;;;;;4.33;1.20;;;;;;;;;;1030736;28;20011;-48
2021/03/12 02:33:04;;;;;;;2.70;1.13;;;;;;;;;;1031584;28;20037;-52
2021/03/12 02:33:34;;;;;;;4.03;1.30;;;;;;;;;;1029254;28;20011;-48
2021/03/12 02:34:06;;;;;;;3.30;1.20;;;;;;;;;;1030320;28;20348;-49
2021/03/12 02:34:36;;;;;;;3.13;1.20;;;;;;;;;;1027879;28;20051;-50
2021/03/12 02:35:19;;;;;;;2.97;1.10;;;;;;;;;;1026305;28;20173;-48
2021/03/12 02:35:51;;;;;;;1.90;1.00;;;;;;;;;;1034141;28;20019;-51
2021/03/12 02:36:22;;;;;;;4.30;1.20;;;;;;;;;;1034719;28;20125;-49
2021/03/12 02:36:54;;;;;;;4.10;1.20;;;;;;;;;;1035297;28;20014;-50
2021/03/12 02:37:24;;;;;;;3.03;1.20;;;;;;;;;;1034547;28;20010;-48
2021/03/12 02:37:54;;;;;;;2.63;0.90;;;;;;;;;;1033707;28;20102;-50
2021/03/12 02:38:25;;;;;;;3.40;1.00;;;;;;;;;;1034314;28;20010;-48
2021/03/12 02:38:56;;;;;;;1.93;0.97;;;;;;;;;;1035174;28;20018;-51
2021/03/12 02:39:27;;;;;;;4.30;1.30;;;;;;;;;;1034644;28;20349;-52
2021/03/12 02:39:58;;;;;;;3.03;1.10;;;;;;;;;;1028511;28;20022;-52
2021/03/12 02:40:28;;;;;;;3.53;1.10;;;;;;;;;;1031074;28;20022;-49
2021/03/12 02:40:58;;;;;;;4.00;1.07;;;;;;;;;;1029520;28;20093;-50
2021/03/12 02:41:29;;;;;;;5.47;1.20;;;;;;;;;;1029655;28;20019;-49
2021/03/12 02:41:59;;;;;;;2.53;1.20;;;;;;;;;;1035089;28;20100;-48
2021/03/12 02:42:30;;;;;;;2.83;1.20;;;;;;;;;;1031032;28;20026;-49
2021/03/12 02:43:01;;;;;;;2.75;1.27;;;;;;;;;;1033985;28;20130;-55
2021/03/12 02:43:32;;;;;;;2.90;1.27;;;;;;;;;;1033552;28;20484;-52
2021/03/12 02:44:02;;;;;;;4.23;1.30;;;;;;;;;;1034678;28;20060;-49
2021/03/12 02:44:33;;;;;;;3.53;1.07;;;;;;;;;;1035038;28;20028;-49
2021/03/12 02:45:03;;;;;;;2.57;1.10;;;;;;;;;;1034155;28;20125;-50
2021/03/12 02:45:33;;;;;;;3.47;1.20;;;;;;;;;;1032138;28;20495;-50
2021/03/12 02:46:04;;;;;;;3.73;1.33;;;;;;;;;;1032496;28;20010;-48
2021/03/12 02:46:34;;;;;;;4.70;1.30;;;;;;;;;;1027676;28;20011;-49
2021/03/12 02:47:07;;;;;;;9.60;1.47;;;;;;;;;;1030565;28;20023;-50
2021/03/12 02:47:38;;;;;;;4.95;1.17;;;;;;;;;;1029031;28;20076;-49
2021/03/12 02:48:08;;;;;;;4.30;1.30;;;;;;;;;;1024903;28;20026;-52
2021/03/12 02:48:38;;;;;;;2.90;1.30;;;;;;;;;;1028737;28;20090;-49
2021/03/12 02:49:09;;;;;;;3.03;1.20;;;;;;;;;;1028335;28;20022;-49
2021/03/12 02:49:39;;;;;;;3.13;1.10;;;;;;;;;;1028415;28;20131;-49
2021/03/12 02:50:09;;;;;;;4.67;1.30;;;;;;;;;;1028403;28;20112;-49
2021/03/12 02:50:40;;;;;;;2.53;1.10;;;;;;;;;;1024733;29;20062;-50
2021/03/12 02:51:10;;;;;;;3.17;1.20;;;;;;;;;;1024527;29;20114;-49
2021/03/12 02:51:43;;;;;;;3.60;1.20;;;;;;;;;;1024836;28;20015;-49
2021/03/12 02:52:13;;;;;;;4.80;1.23;;;;;;;;;;1025037;28;20019;-49
2021/03/12 02:52:45;;;;;;;3.35;1.15;;;;;;;;;;1024967;28;20020;-50
2021/03/12 02:53:15;;;;;;;3.20;1.10;;;;;;;;;;1020468;29;20397;-49
2021/03/12 02:53:45;;;;;;;3.37;1.40;;;;;;;;;;1020690;29;20015;-50
2021/03/12 02:54:16;;;;;;;3.63;1.20;;;;;;;;;;1024619;28;20110;-49
2021/03/12 02:54:46;;;;;;;2.27;1.10;;;;;;;;;;1024438;28;20026;-50
2021/03/12 02:55:18;;;;;;;2.73;1.10;;;;;;;;;;1024523;28;20097;-52
2021/03/12 02:55:48;;;;;;;3.15;1.20;;;;;;;;;;1024658;29;20416;-49
2021/03/12 02:56:19;;;;;;;3.13;1.20;;;;;;;;;;1024633;29;20055;-49
2021/03/12 02:56:49;;;;;;;2.40;1.20;;;;;;;;;;1021077;28;20012;-49
2021/03/12 02:57:21;;;;;;;4.10;1.40;;;;;;;;;;1028795;28;20081;-49
2021/03/12 02:57:51;;;;;;;2.88;1.30;;;;;;;;;;1028665;28;20015;-50
2021/03/12 02:58:22;;;;;;;4.40;1.07;;;;;;;;;;1028504;28;20030;-50
2021/03/12 02:58:52;;;;;;;4.13;1.10;;;;;;;;;;1028378;28;20023;-50
2021/03/12 02:59:22;;;;;;;3.33;1.20;;;;;;;;;;1028668;28;20010;-50
2021/03/12 02:59:53;;;;;;;4.63;1.30;;;;;;;;;;1032617;28;20010;-51
2021/03/12 03:00:23;;;;;;;3.40;1.20;;;;;;;;;;1032655;28;20404;-50
2021/03/12 03:00:54;;;;;;;2.60;1.30;;;;;;;;;;1032741;28;20030;-50
2021/03/12 03:01:25;;;;;;;3.93;1.13;;;;;;;;;;1032742;28;20029;-49
2021/03/12 03:01:55;;;;;;;3.17;1.20;;;;;;;;;;1028442;28;20046;-50
2021/03/12 03:02:27;;;;;;;3.37;1.20;;;;;;;;;;1028599;28;20361;-49
2021/03/12 03:02:57;;;;;;;3.55;1.33;;;;;;;;;;1029074;28;20459;-52
2021/03/12 03:03:28;;;;;;;2.33;1.10;;;;;;;;;;1028495;28;20019;-49
2021/03/12 03:03:58;;;;;;;3.60;1.20;;;;;;;;;;1028589;28;20054;-52
2021/03/12 03:04:28;;;;;;;2.50;1.20;;;;;;;;;;1028613;28;20014;-51
2021/03/12 03:04:58;;;;;;;5.67;1.33;;;;;;;;;;1020372;29;20016;-49
2021/03/12 03:05:29;;;;;;;4.43;1.30;;;;;;;;;;1024565;28;20477;-50
2021/03/12 03:06:02;;;;;;;3.60;1.30;;;;;;;;;;1024598;28;20053;-49
2021/03/12 03:06:32;;;;;;;4.03;1.50;;;;;;;;;;1021460;28;20438;-50
2021/03/12 03:07:04;;;;;;;3.77;1.20;;;;;;;;;;1028678;28;20026;-48